createdAt,value
2022-07-25T00:00:32.625Z,1007.718603304
2022-07-25T00:01:32.633Z,1007.8201946679999
2022-07-25T00:02:32.619Z,1007.718603304
2022-07-25T00:03:33.557Z,1007.718603304
2022-07-25T00:04:32.677Z,1007.8201946679999
2022-07-25T00:05:37.405Z,1007.6170119399999
2022-07-25T00:06:32.580Z,1007.8201946679999
2022-07-25T00:07:32.582Z,1007.6170119399999
2022-07-25T00:08:32.685Z,1007.718603304
2022-07-25T00:09:32.607Z,1007.8201946679999
2022-07-25T00:10:32.598Z,1007.5154205759999
2022-07-25T00:11:32.632Z,1007.8201946679999
2022-07-25T00:12:32.599Z,1007.5154205759999
2022-07-25T00:13:32.553Z,1007.6170119399999
2022-07-25T00:14:32.643Z,1007.5154205759999
2022-07-25T00:15:32.677Z,1007.8201946679999
2022-07-25T00:16:32.721Z,1007.6170119399999
2022-07-25T00:17:32.565Z,1007.718603304
2022-07-25T00:18:32.599Z,1007.6170119399999
2022-07-25T00:19:32.599Z,1007.5154205759999
2022-07-25T00:20:32.575Z,1007.718603304
2022-07-25T00:21:32.574Z,1007.6170119399999
2022-07-25T00:22:32.563Z,1007.718603304
2022-07-25T00:23:32.589Z,1007.3122378479999
2022-07-25T00:24:32.570Z,1007.6170119399999
2022-07-25T00:25:32.563Z,1007.5154205759999
2022-07-25T00:26:39.496Z,1007.5154205759999
2022-07-25T00:27:32.572Z,1007.6170119399999
2022-07-25T00:28:32.566Z,1007.8201946679999
2022-07-25T00:29:32.572Z,1007.8201946679999
2022-07-25T00:30:32.597Z,1007.6170119399999
2022-07-25T00:31:32.935Z,1007.413829212
2022-07-25T00:32:32.580Z,1007.5154205759999
2022-07-25T00:33:32.566Z,1007.5154205759999
2022-07-25T00:34:32.555Z,1007.6170119399999
2022-07-25T00:35:32.564Z,1007.5154205759999
2022-07-25T00:36:32.585Z,1007.5154205759999
2022-07-25T00:37:32.566Z,1007.3122378479999
2022-07-25T00:38:32.573Z,1007.413829212
2022-07-25T00:39:32.700Z,1007.3122378479999
2022-07-25T00:40:32.588Z,1007.3122378479999
2022-07-25T00:41:33.023Z,1007.6170119399999
2022-07-25T00:42:32.574Z,1007.3122378479999
2022-07-25T00:43:32.572Z,1007.5154205759999
2022-07-25T00:44:32.576Z,1007.413829212
2022-07-25T00:45:32.569Z,1007.413829212
2022-07-25T00:46:32.722Z,1007.413829212
2022-07-25T00:47:32.583Z,1007.413829212
2022-07-25T00:48:32.634Z,1007.3122378479999
2022-07-25T00:49:32.543Z,1007.5154205759999
2022-07-25T00:50:32.645Z,1007.3122378479999
2022-07-25T00:51:32.545Z,1007.3122378479999
2022-07-25T00:52:32.587Z,1007.2106464839999
2022-07-25T00:53:32.634Z,1007.5154205759999
2022-07-25T00:54:32.565Z,1007.413829212
2022-07-25T00:55:32.568Z,1007.3122378479999
2022-07-25T00:56:32.642Z,1007.3122378479999
2022-07-25T00:57:32.583Z,1007.3122378479999
2022-07-25T00:58:32.610Z,1007.2106464839999
2022-07-25T00:59:32.574Z,1007.3122378479999
2022-07-25T01:00:32.596Z,1007.413829212
2022-07-25T01:01:32.643Z,1007.413829212
2022-07-25T01:02:32.646Z,1007.413829212
2022-07-25T01:03:32.719Z,1007.3122378479999
2022-07-25T01:04:32.611Z,1007.10905512
2022-07-25T01:05:32.564Z,1007.10905512
2022-07-25T01:06:32.878Z,1007.413829212
2022-07-25T01:07:32.560Z,1007.3122378479999
2022-07-25T01:08:32.579Z,1007.413829212
2022-07-25T01:09:32.581Z,1007.2106464839999
2022-07-25T01:10:32.594Z,1007.2106464839999
2022-07-25T01:11:32.548Z,1007.2106464839999
2022-07-25T01:12:32.557Z,1007.10905512
2022-07-25T01:13:32.558Z,1007.10905512
2022-07-25T01:14:32.601Z,1007.10905512
2022-07-25T01:15:32.700Z,1007.10905512
2022-07-25T01:16:33.074Z,1007.0074637559999
2022-07-25T01:17:32.578Z,1007.0074637559999
2022-07-25T01:18:32.573Z,1007.0074637559999
2022-07-25T01:19:32.569Z,1007.2106464839999
2022-07-25T01:20:32.721Z,1007.10905512
2022-07-25T01:21:32.651Z,1007.0074637559999
2022-07-25T01:22:32.570Z,1007.10905512
2022-07-25T01:23:32.551Z,1007.0074637559999
2022-07-25T01:24:32.648Z,1007.2106464839999
2022-07-25T01:25:32.818Z,1007.10905512
2022-07-25T01:26:32.564Z,1007.2106464839999
2022-07-25T01:27:32.555Z,1007.2106464839999
2022-07-25T01:28:32.706Z,1007.10905512
2022-07-25T01:29:32.560Z,1007.0074637559999
2022-07-25T01:30:32.591Z,1007.0074637559999
2022-07-25T01:31:32.619Z,1007.2106464839999
2022-07-25T01:32:32.568Z,1007.10905512
2022-07-25T01:33:32.585Z,1007.0074637559999
2022-07-25T01:34:32.565Z,1006.9397361800001
2022-07-25T01:35:32.557Z,1006.9397361800001
2022-07-25T01:36:34.777Z,1006.9397361800001
2022-07-25T01:37:32.592Z,1007.0074637559999
2022-07-25T01:38:32.574Z,1007.0074637559999
2022-07-25T01:39:32.556Z,1007.10905512
2022-07-25T01:40:32.668Z,1007.0074637559999
2022-07-25T01:41:32.700Z,1006.736553452
2022-07-25T01:42:32.726Z,1006.9397361800001
2022-07-25T01:43:32.715Z,1006.9397361800001
2022-07-25T01:44:32.725Z,1006.9397361800001
2022-07-25T01:45:32.647Z,1006.9397361800001
2022-07-25T01:46:32.774Z,1006.838144816
2022-07-25T01:47:32.691Z,1006.9397361800001
2022-07-25T01:48:32.729Z,1006.9397361800001
2022-07-25T01:49:32.574Z,1006.838144816
2022-07-25T01:50:32.560Z,1006.838144816
2022-07-25T01:51:32.555Z,1006.838144816
2022-07-25T01:52:32.584Z,1006.838144816
2022-07-25T01:53:32.559Z,1006.736553452
2022-07-25T01:54:32.562Z,1006.736553452
2022-07-25T01:55:32.581Z,1006.838144816
2022-07-25T01:56:32.545Z,1006.736553452
2022-07-25T01:57:32.576Z,1006.6349620879998
2022-07-25T01:58:32.576Z,1006.838144816
2022-07-25T01:59:32.593Z,1006.838144816
2022-07-25T02:00:33.112Z,1006.736553452
2022-07-25T02:01:32.626Z,1006.736553452
2022-07-25T02:02:32.582Z,1006.838144816
2022-07-25T02:03:32.572Z,1006.838144816
2022-07-25T02:04:32.614Z,1006.6349620879998
2022-07-25T02:05:32.555Z,1006.838144816
2022-07-25T02:06:32.586Z,1006.43177936
2022-07-25T02:07:32.569Z,1006.838144816
2022-07-25T02:08:32.535Z,1006.736553452
2022-07-25T02:09:32.550Z,1006.736553452
2022-07-25T02:10:32.573Z,1006.838144816
2022-07-25T02:11:32.528Z,1006.736553452
2022-07-25T02:12:32.640Z,1006.838144816
2022-07-25T02:13:33.433Z,1006.6349620879998
2022-07-25T02:14:32.554Z,1006.736553452
2022-07-25T02:15:32.554Z,1006.533370724
2022-07-25T02:16:32.581Z,1006.736553452
2022-07-25T02:17:33.226Z,1006.736553452
2022-07-25T02:18:33.163Z,1006.6349620879998
2022-07-25T02:19:32.578Z,1006.533370724
2022-07-25T02:20:32.849Z,1006.6349620879998
2022-07-25T02:21:32.555Z,1006.6349620879998
2022-07-25T02:22:32.595Z,1006.6349620879998
2022-07-25T02:23:32.644Z,1006.533370724
2022-07-25T02:24:32.833Z,1006.533370724
2022-07-25T02:25:32.569Z,1006.6349620879998
2022-07-25T02:26:33.003Z,1006.533370724
2022-07-25T02:27:32.554Z,1006.3301879959998
2022-07-25T02:28:32.580Z,1006.3301879959998
2022-07-25T02:29:32.554Z,1006.3301879959998
2022-07-25T02:30:32.666Z,1006.3301879959998
2022-07-25T02:31:32.537Z,1006.3301879959998
2022-07-25T02:32:32.542Z,1006.3301879959998
2022-07-25T02:33:32.573Z,1006.43177936
2022-07-25T02:34:32.545Z,1006.228596632
2022-07-25T02:35:32.538Z,1006.3301879959998
2022-07-25T02:36:32.566Z,1006.3301879959998
2022-07-25T02:37:32.562Z,1006.3301879959998
2022-07-25T02:38:32.662Z,1006.3301879959998
2022-07-25T02:39:32.549Z,1006.3301879959998
2022-07-25T02:40:32.646Z,1006.43177936
2022-07-25T02:41:32.543Z,1006.533370724
2022-07-25T02:42:32.550Z,1006.3301879959998
2022-07-25T02:43:32.572Z,1006.533370724
2022-07-25T02:44:32.543Z,1006.228596632
2022-07-25T02:45:32.574Z,1006.228596632
2022-07-25T02:46:32.673Z,1006.3301879959998
2022-07-25T02:47:32.580Z,1006.43177936
2022-07-25T02:48:32.570Z,1006.43177936
2022-07-25T02:49:32.541Z,1006.533370724
2022-07-25T02:50:33.220Z,1006.43177936
2022-07-25T02:51:32.574Z,1006.43177936
2022-07-25T02:52:32.548Z,1006.43177936
2022-07-25T02:53:47.168Z,1006.43177936
2022-07-25T02:54:32.609Z,1006.3301879959998
2022-07-25T02:55:32.538Z,1006.43177936
2022-07-25T02:56:32.567Z,1006.228596632
2022-07-25T02:57:32.573Z,1006.43177936
2022-07-25T02:58:32.610Z,1006.3301879959998
2022-07-25T02:59:32.686Z,1006.3301879959998
2022-07-25T03:00:32.564Z,1006.43177936
2022-07-25T03:01:32.620Z,1006.6349620879998
2022-07-25T03:02:32.607Z,1006.533370724
2022-07-25T03:03:32.717Z,1006.43177936
2022-07-25T03:04:32.696Z,1006.43177936
2022-07-25T03:05:32.601Z,1006.533370724
2022-07-25T03:06:32.555Z,1006.533370724
2022-07-25T03:07:32.549Z,1006.533370724
2022-07-25T03:08:32.544Z,1006.6349620879998
2022-07-25T03:09:32.555Z,1006.6349620879998
2022-07-25T03:10:32.721Z,1006.6349620879998
2022-07-25T03:11:32.632Z,1006.6349620879998
2022-07-25T03:12:33.940Z,1006.533370724
2022-07-25T03:13:32.558Z,1006.533370724
2022-07-25T03:14:32.684Z,1006.533370724
2022-07-25T03:15:32.565Z,1006.533370724
2022-07-25T03:16:32.703Z,1006.533370724
2022-07-25T03:17:32.726Z,1006.43177936
2022-07-25T03:18:32.583Z,1006.43177936
2022-07-25T03:19:32.552Z,1006.6349620879998
2022-07-25T03:20:32.611Z,1006.533370724
2022-07-25T03:21:32.751Z,1006.736553452
2022-07-25T03:22:32.581Z,1006.6349620879998
2022-07-25T03:23:32.600Z,1006.6349620879998
2022-07-25T03:24:32.601Z,1006.43177936
2022-07-25T03:25:32.676Z,1006.533370724
2022-07-25T03:26:32.822Z,1006.3301879959998
2022-07-25T03:27:32.573Z,1006.6349620879998
2022-07-25T03:28:32.687Z,1006.6349620879998
2022-07-25T03:29:32.581Z,1006.43177936
2022-07-25T03:30:33.916Z,1006.533370724
2022-07-25T03:31:32.616Z,1006.3301879959998
2022-07-25T03:32:32.903Z,1006.228596632
2022-07-25T03:33:32.558Z,1006.228596632
2022-07-25T03:34:32.535Z,1006.228596632
2022-07-25T03:35:32.541Z,1006.127005268
2022-07-25T03:36:32.591Z,1006.3301879959998
2022-07-25T03:37:32.885Z,1006.127005268
2022-07-25T03:38:32.596Z,1006.127005268
2022-07-25T03:39:32.698Z,1006.43177936
2022-07-25T03:40:33.182Z,1006.0254139039998
2022-07-25T03:41:32.593Z,1006.228596632
2022-07-25T03:42:35.405Z,1006.3301879959998
2022-07-25T03:43:32.663Z,1006.3301879959998
2022-07-25T03:44:32.523Z,1006.228596632
2022-07-25T03:45:32.649Z,1006.43177936
2022-07-25T03:46:32.563Z,1006.43177936
2022-07-25T03:47:32.567Z,1006.3301879959998
2022-07-25T03:48:32.603Z,1006.228596632
2022-07-25T03:49:32.533Z,1006.3301879959998
2022-07-25T03:50:32.557Z,1006.3301879959998
2022-07-25T03:51:32.557Z,1006.3301879959998
2022-07-25T03:52:32.643Z,1006.3301879959998
2022-07-25T03:53:32.572Z,1006.3301879959998
2022-07-25T03:54:32.550Z,1006.228596632
2022-07-25T03:55:32.532Z,1006.3301879959998
2022-07-25T03:56:32.797Z,1006.3301879959998
2022-07-25T03:57:32.551Z,1006.228596632
2022-07-25T03:58:32.586Z,1006.228596632
2022-07-25T03:59:32.553Z,1006.228596632
2022-07-25T04:00:32.550Z,1006.127005268
2022-07-25T04:01:34.029Z,1006.43177936
2022-07-25T04:02:32.885Z,1006.228596632
2022-07-25T04:03:32.563Z,1006.127005268
2022-07-25T04:04:32.539Z,1006.43177936
2022-07-25T04:05:32.554Z,1006.228596632
2022-07-25T04:06:32.535Z,1006.228596632
2022-07-25T04:07:33.335Z,1006.3301879959998
2022-07-25T04:08:32.539Z,1006.228596632
2022-07-25T04:09:33.731Z,1006.228596632
2022-07-25T04:10:32.582Z,1006.127005268
2022-07-25T04:11:32.546Z,1006.228596632
2022-07-25T04:12:32.536Z,1006.228596632
2022-07-25T04:13:33.148Z,1005.92382254
2022-07-25T04:14:32.550Z,1006.127005268
2022-07-25T04:15:32.549Z,1006.127005268
2022-07-25T04:16:32.600Z,1006.127005268
2022-07-25T04:17:32.561Z,1006.0254139039998
2022-07-25T04:18:34.228Z,1006.0254139039998
2022-07-25T04:19:32.550Z,1006.127005268
2022-07-25T04:20:32.547Z,1006.0254139039998
2022-07-25T04:21:32.557Z,1005.92382254
2022-07-25T04:22:32.567Z,1006.0254139039998
2022-07-25T04:23:32.615Z,1006.0254139039998
2022-07-25T04:24:32.541Z,1006.0254139039998
2022-07-25T04:25:33.641Z,1006.127005268
2022-07-25T04:26:32.530Z,1005.8222311760001
2022-07-25T04:27:32.561Z,1006.0254139039998
2022-07-25T04:28:32.585Z,1006.0254139039998
2022-07-25T04:29:32.598Z,1005.92382254
2022-07-25T04:30:32.635Z,1006.0254139039998
2022-07-25T04:31:32.673Z,1006.0254139039998
2022-07-25T04:32:32.553Z,1006.0254139039998
2022-07-25T04:33:32.551Z,1006.0254139039998
2022-07-25T04:34:32.591Z,1006.0254139039998
2022-07-25T04:35:32.567Z,1006.0254139039998
2022-07-25T04:36:32.539Z,1005.8222311760001
2022-07-25T04:37:32.913Z,1005.8222311760001
2022-07-25T04:38:32.550Z,1005.92382254
2022-07-25T04:39:32.895Z,1005.8222311760001
2022-07-25T04:40:32.553Z,1005.92382254
2022-07-25T04:41:32.556Z,1005.92382254
2022-07-25T04:42:32.550Z,1005.8222311760001
2022-07-25T04:43:32.510Z,1006.0254139039998
2022-07-25T04:44:32.637Z,1005.92382254
2022-07-25T04:45:32.576Z,1005.92382254
2022-07-25T04:46:32.534Z,1005.7206398120001
2022-07-25T04:47:32.542Z,1006.0254139039998
2022-07-25T04:48:32.630Z,1005.8222311760001
2022-07-25T04:49:32.549Z,1005.92382254
2022-07-25T04:50:32.570Z,1005.92382254
2022-07-25T04:51:32.620Z,1005.5174570840001
2022-07-25T04:52:32.543Z,1005.8222311760001
2022-07-25T04:53:32.557Z,1005.5174570840001
2022-07-25T04:54:32.566Z,1005.92382254
2022-07-25T04:55:32.627Z,1005.7206398120001
2022-07-25T04:56:32.571Z,1005.8222311760001
2022-07-25T04:57:32.725Z,1005.7206398120001
2022-07-25T04:58:32.558Z,1005.6190484480001
2022-07-25T04:59:32.533Z,1005.8222311760001
2022-07-25T05:00:32.602Z,1005.7206398120001
2022-07-25T05:01:32.719Z,1005.92382254
2022-07-25T05:02:32.624Z,1006.0254139039998
2022-07-25T05:03:32.572Z,1005.8222311760001
2022-07-25T05:04:32.546Z,1005.8222311760001
2022-07-25T05:05:32.563Z,1005.8222311760001
2022-07-25T05:06:33.016Z,1006.0254139039998
2022-07-25T05:07:32.545Z,1005.92382254
2022-07-25T05:08:32.590Z,1005.7206398120001
2022-07-25T05:09:32.539Z,1005.92382254
2022-07-25T05:10:32.586Z,1005.8222311760001
2022-07-25T05:11:32.557Z,1005.8222311760001
2022-07-25T05:12:32.565Z,1005.8222311760001
2022-07-25T05:13:32.554Z,1005.8222311760001
2022-07-25T05:14:32.586Z,1005.8222311760001
2022-07-25T05:15:32.618Z,1005.5174570840001
2022-07-25T05:16:32.695Z,1005.7206398120001
2022-07-25T05:17:32.532Z,1005.8222311760001
2022-07-25T05:18:32.612Z,1005.6190484480001
2022-07-25T05:19:32.575Z,1005.5174570840001
2022-07-25T05:20:32.573Z,1005.6190484480001
2022-07-25T05:21:32.604Z,1005.5174570840001
2022-07-25T05:22:32.535Z,1005.92382254
2022-07-25T05:23:32.635Z,1005.7206398120001
2022-07-25T05:24:32.544Z,1005.92382254
2022-07-25T05:25:32.539Z,1005.7206398120001
2022-07-25T05:26:33.546Z,1005.6190484480001
2022-07-25T05:27:32.582Z,1005.8222311760001
2022-07-25T05:28:32.550Z,1005.5174570840001
2022-07-25T05:29:32.581Z,1005.7206398120001
2022-07-25T05:30:36.521Z,1005.5174570840001
2022-07-25T05:31:32.599Z,1005.8222311760001
2022-07-25T05:32:32.557Z,1005.6190484480001
2022-07-25T05:33:32.619Z,1005.6190484480001
2022-07-25T05:34:32.577Z,1005.5174570840001
2022-07-25T05:35:32.550Z,1005.41586572
2022-07-25T05:36:32.561Z,1005.6190484480001
2022-07-25T05:37:32.535Z,1005.314274356
2022-07-25T05:38:32.537Z,1005.314274356
2022-07-25T05:39:32.623Z,1005.41586572
2022-07-25T05:40:32.529Z,1005.6190484480001
2022-07-25T05:41:32.539Z,1005.6190484480001
2022-07-25T05:42:32.540Z,1005.314274356
2022-07-25T05:43:32.527Z,1005.41586572
2022-07-25T05:44:32.681Z,1005.41586572
2022-07-25T05:45:32.563Z,1005.41586572
2022-07-25T05:46:33.634Z,1005.5174570840001
2022-07-25T05:47:32.530Z,1005.5174570840001
2022-07-25T05:48:32.646Z,1005.5174570840001
2022-07-25T05:49:32.624Z,1005.5174570840001
2022-07-25T05:50:32.540Z,1005.212682992
2022-07-25T05:51:32.572Z,1005.41586572
2022-07-25T05:52:32.699Z,1005.314274356
2022-07-25T05:53:32.706Z,1005.314274356
2022-07-25T05:54:32.531Z,1005.212682992
2022-07-25T05:55:32.489Z,1005.212682992
2022-07-25T05:56:32.527Z,1005.212682992
2022-07-25T05:57:32.548Z,1005.212682992
2022-07-25T05:58:32.558Z,1005.212682992
2022-07-25T05:59:32.524Z,1005.41586572
2022-07-25T06:00:32.522Z,1005.1110916279999
2022-07-25T06:01:32.559Z,1005.41586572
2022-07-25T06:02:32.787Z,1005.41586572
2022-07-25T06:03:32.546Z,1005.5174570840001
2022-07-25T06:04:32.704Z,1005.314274356
2022-07-25T06:05:32.613Z,1005.212682992
2022-07-25T06:06:34.551Z,1005.212682992
2022-07-25T06:07:32.527Z,1005.212682992
2022-07-25T06:08:33.962Z,1005.41586572
2022-07-25T06:09:32.540Z,1005.314274356
2022-07-25T06:10:32.572Z,1005.314274356
2022-07-25T06:11:32.539Z,1005.314274356
2022-07-25T06:12:32.530Z,1005.5174570840001
2022-07-25T06:13:32.544Z,1005.314274356
2022-07-25T06:14:32.544Z,1005.314274356
2022-07-25T06:15:32.514Z,1005.314274356
2022-07-25T06:16:34.216Z,1005.212682992
2022-07-25T06:17:32.903Z,1005.1110916279999
2022-07-25T06:18:32.601Z,1005.1110916279999
2022-07-25T06:19:32.557Z,1005.314274356
2022-07-25T06:20:32.524Z,1005.212682992
2022-07-25T06:21:32.556Z,1005.314274356
2022-07-25T06:22:32.565Z,1005.0095002639999
2022-07-25T06:23:32.535Z,1005.212682992
2022-07-25T06:24:32.568Z,1005.0095002639999
2022-07-25T06:25:32.556Z,1005.0095002639999
2022-07-25T06:26:32.682Z,1005.0095002639999
2022-07-25T06:27:32.520Z,1005.0095002639999
2022-07-25T06:28:32.537Z,1005.0095002639999
2022-07-25T06:29:32.586Z,1005.0095002639999
2022-07-25T06:30:33.222Z,1005.1110916279999
2022-07-25T06:31:32.654Z,1004.9079089
2022-07-25T06:32:32.538Z,1004.9079089
2022-07-25T06:33:32.548Z,1004.9079089
2022-07-25T06:34:32.618Z,1005.1110916279999
2022-07-25T06:35:32.541Z,1004.9079089
2022-07-25T06:36:34.831Z,1004.9079089
2022-07-25T06:37:32.542Z,1004.9079089
2022-07-25T06:38:32.584Z,1004.8401813239999
2022-07-25T06:39:32.520Z,1005.1110916279999
2022-07-25T06:40:33.654Z,1004.8401813239999
2022-07-25T06:41:32.510Z,1005.1110916279999
2022-07-25T06:42:32.557Z,1004.9079089
2022-07-25T06:43:32.573Z,1004.9079089
2022-07-25T06:44:32.611Z,1004.9079089
2022-07-25T06:45:32.546Z,1004.9079089
2022-07-25T06:46:32.649Z,1005.1110916279999
2022-07-25T06:47:35.907Z,1004.9079089
2022-07-25T06:48:32.537Z,1005.0095002639999
2022-07-25T06:49:32.580Z,1004.9079089
2022-07-25T06:50:32.853Z,1004.9079089
2022-07-25T06:51:32.631Z,1004.9079089
2022-07-25T06:52:32.560Z,1004.8401813239999
2022-07-25T06:53:32.579Z,1004.9079089
2022-07-25T06:54:32.534Z,1004.9079089
2022-07-25T06:55:32.550Z,1005.0095002639999
2022-07-25T06:56:33.539Z,1004.9079089
2022-07-25T06:57:32.627Z,1005.0095002639999
2022-07-25T06:58:32.505Z,1004.9079089
2022-07-25T06:59:32.545Z,1004.8401813239999
2022-07-25T07:00:33.133Z,1005.0095002639999
2022-07-25T07:01:32.591Z,1005.1110916279999
2022-07-25T07:02:32.564Z,1005.0095002639999
2022-07-25T07:03:32.712Z,1005.0095002639999
2022-07-25T07:04:32.539Z,1005.0095002639999
2022-07-25T07:05:32.671Z,1004.8401813239999
2022-07-25T07:06:33.026Z,1005.1110916279999
2022-07-25T07:07:32.534Z,1005.212682992
2022-07-25T07:08:32.531Z,1005.0095002639999
2022-07-25T07:09:34.340Z,1005.0095002639999
2022-07-25T07:10:32.613Z,1004.9079089
2022-07-25T07:11:32.531Z,1005.0095002639999
2022-07-25T07:12:32.673Z,1004.8401813239999
2022-07-25T07:13:32.533Z,1004.8401813239999
2022-07-25T07:14:32.520Z,1005.212682992
2022-07-25T07:15:32.785Z,1004.7385899600001
2022-07-25T07:16:32.702Z,1004.9079089
2022-07-25T07:17:32.541Z,1004.7385899600001
2022-07-25T07:18:32.699Z,1004.9079089
2022-07-25T07:19:32.526Z,1004.7385899600001
2022-07-25T07:20:32.542Z,1004.636998596
2022-07-25T07:21:32.552Z,1005.0095002639999
2022-07-25T07:22:32.529Z,1004.7385899600001
2022-07-25T07:23:32.620Z,1004.9079089
2022-07-25T07:24:32.652Z,1005.0095002639999
2022-07-25T07:25:32.663Z,1004.9079089
2022-07-25T07:26:33.732Z,1004.9079089
2022-07-25T07:27:32.518Z,1004.8401813239999
2022-07-25T07:28:32.550Z,1004.9079089
2022-07-25T07:29:32.545Z,1004.636998596
2022-07-25T07:30:58.468Z,1004.8401813239999
2022-07-25T07:31:32.637Z,1004.535407232
2022-07-25T07:32:32.702Z,1004.535407232
2022-07-25T07:33:32.558Z,1004.7385899600001
2022-07-25T07:34:32.525Z,1004.9079089
2022-07-25T07:35:34.898Z,1004.636998596
2022-07-25T07:36:32.704Z,1004.636998596
2022-07-25T07:37:37.597Z,1004.636998596
2022-07-25T07:38:32.648Z,1004.7385899600001
2022-07-25T07:39:32.507Z,1004.636998596
2022-07-25T07:40:32.541Z,1004.535407232
2022-07-25T07:41:32.529Z,1004.636998596
2022-07-25T07:42:32.717Z,1004.535407232
2022-07-25T07:43:32.557Z,1004.636998596
2022-07-25T07:44:32.542Z,1004.535407232
2022-07-25T07:45:32.621Z,1004.4338158680001
2022-07-25T07:46:33.691Z,1004.636998596
2022-07-25T07:47:32.599Z,1004.4338158680001
2022-07-25T07:48:32.636Z,1004.8401813239999
2022-07-25T07:49:32.580Z,1004.535407232
2022-07-25T07:50:32.465Z,1004.7385899600001
2022-07-25T07:51:33.246Z,1004.4338158680001
2022-07-25T07:52:33.069Z,1004.636998596
2022-07-25T07:53:33.077Z,1004.8401813239999
2022-07-25T07:54:32.515Z,1004.7385899600001
2022-07-25T07:55:32.541Z,1004.636998596
2022-07-25T07:56:33.159Z,1004.7385899600001
2022-07-25T07:57:33.536Z,1004.636998596
2022-07-25T07:58:32.534Z,1004.636998596
2022-07-25T07:59:32.613Z,1004.4338158680001
2022-07-25T08:00:32.719Z,1004.8401813239999
2022-07-25T08:01:32.695Z,1004.535407232
2022-07-25T08:02:32.588Z,1004.535407232
2022-07-25T08:03:32.551Z,1004.4338158680001
2022-07-25T08:04:32.550Z,1004.23063314
2022-07-25T08:05:32.545Z,1004.535407232
2022-07-25T08:06:32.592Z,1004.332224504
2022-07-25T08:07:32.518Z,1004.535407232
2022-07-25T08:08:32.547Z,1004.636998596
2022-07-25T08:09:32.542Z,1004.23063314
2022-07-25T08:10:32.536Z,1004.535407232
2022-07-25T08:11:32.536Z,1004.636998596
2022-07-25T08:12:32.612Z,1004.8401813239999
2022-07-25T08:13:33.883Z,1004.535407232
2022-07-25T08:14:33.509Z,1004.8401813239999
2022-07-25T08:15:32.543Z,1004.7385899600001
2022-07-25T08:16:32.611Z,1004.7385899600001
2022-07-25T08:17:32.551Z,1004.636998596
2022-07-25T08:18:32.630Z,1004.8401813239999
2022-07-25T08:19:32.552Z,1004.535407232
2022-07-25T08:20:38.080Z,1004.4338158680001
2022-07-25T08:21:32.641Z,1004.332224504
2022-07-25T08:22:32.563Z,1004.535407232
2022-07-25T08:23:32.534Z,1004.636998596
2022-07-25T08:24:32.542Z,1004.636998596
2022-07-25T08:25:32.520Z,1004.7385899600001
2022-07-25T08:26:33.552Z,1004.535407232
2022-07-25T08:27:32.574Z,1004.7385899600001
2022-07-25T08:28:32.673Z,1004.4338158680001
2022-07-25T08:29:32.542Z,1004.535407232
2022-07-25T08:30:32.678Z,1004.535407232
2022-07-25T08:31:32.700Z,1004.332224504
2022-07-25T08:32:33.058Z,1004.535407232
2022-07-25T08:33:32.663Z,1004.636998596
2022-07-25T08:34:32.534Z,1004.4338158680001
2022-07-25T08:35:32.521Z,1004.535407232
2022-07-25T08:36:34.936Z,1004.535407232
2022-07-25T08:37:32.531Z,1004.332224504
2022-07-25T08:38:32.541Z,1004.4338158680001
2022-07-25T08:39:32.549Z,1004.4338158680001
2022-07-25T08:40:32.556Z,1004.4338158680001
2022-07-25T08:41:32.529Z,1004.4338158680001
2022-07-25T08:42:32.559Z,1004.636998596
2022-07-25T08:43:32.558Z,1004.636998596
2022-07-25T08:44:32.548Z,1004.636998596
2022-07-25T08:45:32.584Z,1004.636998596
2022-07-25T08:46:34.315Z,1004.636998596
2022-07-25T08:47:32.532Z,1004.636998596
2022-07-25T08:48:32.559Z,1004.636998596
2022-07-25T08:49:32.544Z,1004.636998596
2022-07-25T08:50:32.524Z,1004.7385899600001
2022-07-25T08:51:32.618Z,1004.4338158680001
2022-07-25T08:52:32.520Z,1004.636998596
2022-07-25T08:53:34.563Z,1004.636998596
2022-07-25T08:54:32.534Z,1004.636998596
2022-07-25T08:55:32.527Z,1004.535407232
2022-07-25T08:56:34.045Z,1004.4338158680001
2022-07-25T08:57:32.526Z,1004.4338158680001
2022-07-25T08:58:32.560Z,1004.535407232
2022-07-25T08:59:32.589Z,1004.4338158680001
2022-07-25T09:00:33.214Z,1004.636998596
2022-07-25T09:01:34.904Z,1004.636998596
2022-07-25T09:02:32.706Z,1004.23063314
2022-07-25T09:03:32.736Z,1004.636998596
2022-07-25T09:04:32.585Z,1004.4338158680001
2022-07-25T09:05:32.530Z,1004.7385899600001
2022-07-25T09:06:32.548Z,1004.535407232
2022-07-25T09:07:32.536Z,1004.4338158680001
2022-07-25T09:08:32.558Z,1004.4338158680001
2022-07-25T09:09:32.687Z,1004.4338158680001
2022-07-25T09:10:32.527Z,1004.535407232
2022-07-25T09:11:32.527Z,1004.4338158680001
2022-07-25T09:12:32.568Z,1004.535407232
2022-07-25T09:13:32.587Z,1004.7385899600001
2022-07-25T09:14:32.503Z,1004.4338158680001
2022-07-25T09:15:32.640Z,1004.7385899600001
2022-07-25T09:16:32.525Z,1004.7385899600001
2022-07-25T09:17:32.540Z,1004.535407232
2022-07-25T09:18:33.004Z,1004.4338158680001
2022-07-25T09:19:32.564Z,1004.4338158680001
2022-07-25T09:20:32.537Z,1004.535407232
2022-07-25T09:21:32.499Z,1004.535407232
2022-07-25T09:22:32.507Z,1004.4338158680001
2022-07-25T09:23:32.526Z,1004.636998596
2022-07-25T09:24:32.563Z,1004.535407232
2022-07-25T09:25:32.519Z,1004.4338158680001
2022-07-25T09:26:32.545Z,1004.535407232
2022-07-25T09:27:32.496Z,1004.535407232
2022-07-25T09:28:32.573Z,1004.4338158680001
2022-07-25T09:29:32.552Z,1004.23063314
2022-07-25T09:30:32.517Z,1004.4338158680001
2022-07-25T09:31:32.792Z,1004.535407232
2022-07-25T09:32:32.581Z,1004.636998596